Pacoima, CA (91331)

1:33 PM PDT on September 01, 2014 (GMT -0700)
Whiteman | Change Station
CLOSE
Current Station
Airport
Location: San Fernando,
Elevation: 1004 ft
Nearby Weather Stations

Elev 1004 ft 34.26 °N, 118.41 °W | Updated 46 minutes ago

Clear
Clear
86 °F
Feels Like 85 °F
N
7
Wind Variable Wind from East

Today
High -- | Low -- °F
--% Chance of Precip.
Yesterday
High -- | Low -- °F
Precip. -- in
6:27 AM 7:19 PM
Waxing Crescent, 44% visible
Pressure 29.86 in
Visibility 15.0 miles
Clouds Clear
Heat Index 85 °F
Dew Point 59 °F
Humidity 40%
Rainfall 0.00 in
Snow Depth Not available.
UV 10 out of 12
Pollen 7.80 out of 12
Ozone Good
PM2.5 Moderate
Flu Activity Not available.
METAR KWHP 011947Z 10006KT 15SM SKC 30/15 A2986

More Conditions Fewer Conditions

Pressure 29.86 in
Visibility 15.0 miles
Clouds Clear
Heat Index 85 °F
Dew Point 59 °F
Humidity 40%
Rainfall 0.00 in
Snow Depth Not available.
UV 10 out of 12
Pollen 7.80 out of 12
Ozone Good
PM2.5 Moderate
Flu Activity Not available.
METAR KWHP 011947Z 10006KT 15SM SKC 30/15 A2986

More Conditions Fewer Conditions

10-Day Weather Forecast

Almanac

Astronomy

Sep. 01, 2014 Rise Set
Actual Time 6:27 AM PDT 7:19 PM PDT
Civil Twilight 6:01 AM PDT 7:45 PM PDT
Nautical Twilight 5:31 AM PDT 8:15 PM PDT
Astronomical Twilight 5:00 AM PDT 8:46 PM PDT
Moon 12:59 PM PDT 11:42 PM PDT
Length of Visible Light 13h 43m
Length of Day
12h 52m
Tomorrow will be 2m 2s shorter.
Waxing Crescent, 44% of the Moon is Illuminated
Today
Waxing Crescent
Sep 2
First Quarter
Sep 8
Full
Sep 15
Last Quarter
Sep 24
New

Today's Extremes

State Highs State Lows

Community

WunderPhotos

Upload Photos

1,749,398 photos uploaded!

WunderBlogs® & News

Nearby

Air Quality

  Air Quality AQ Index Pollutant
Yesterday Unhealthy for Sensitive Groups
OZONE
Yesterday Moderate
PM2.5
Current Moderate
PM2.5
Current Good
OZONE
Tuesday Moderate
OZONE
Tuesday Good
PM10
Tuesday Good
CO
Tuesday Good
NO2

Snow Depth

Station Depth Elevation
Leavitt Meadows 0 in 7200 ft
Forestdale Creek 0 in 8029 ft
CSS Lab 1 in 6900 ft
Adin Mountain 0 in 6200 ft

Earthquake Activity

City Distance Mag. Time & Date
Malibu, California 53 miles 2.5 8:11 AM PDT
2014-08-30
Minimum magnitude displayed is 2.5.

Coastal Water Temperatures

Place Temperature
Santa Monica Pier 73.0 °F
Los Angeles, CA 71.1 °F
La Jolla, CA 73.0 °F

Nearby Weather Stations